Time;durP1;ratioP1;P1;durP2;ratioP2;P2;SDS_P1;SDS_P2;PMS_P1;PMS_P2;Temp;Humidity;BMP_temperature;BMP_pressure;BME280_temperature;BME280_humidity;BME280_pressure;Samples;Min_cycle;Max_cycle;Signal;HPM_P1;HPM_P2
2023/01/06 00:01:05;;;;;;;2.27;1.80;;;10.40;99.90;;;;;;5057255;28;20795;-36
2023/01/06 00:03:30;;;;;;;2.43;1.53;;;10.40;99.90;;;;;;5056839;28;20189;-35
2023/01/06 00:06:00;;;;;;;2.70;1.60;;;10.40;99.90;;;;;;5055118;28;20471;-36
2023/01/06 00:08:26;;;;;;;3.07;1.70;;;10.40;99.90;;;;;;5056405;28;20242;-36
2023/01/06 00:10:52;;;;;;;2.40;1.57;;;10.30;99.90;;;;;;5056169;28;20443;-36
2023/01/06 00:13:18;;;;;;;1.63;1.20;;;10.40;99.90;;;;;;5058376;28;20412;-36
2023/01/06 00:15:43;;;;;;;2.87;1.77;;;10.40;99.90;;;;;;5057648;28;20235;-35
2023/01/06 00:18:09;;;;;;;3.60;2.10;;;10.30;99.90;;;;;;5057563;28;20193;-36
2023/01/06 00:20:35;;;;;;;2.87;2.23;;;10.30;99.90;;;;;;5055148;28;20178;-36
2023/01/06 00:23:00;;;;;;;2.40;1.57;;;10.30;99.90;;;;;;5056292;28;20190;-35
2023/01/06 00:25:26;;;;;;;2.30;1.73;;;10.30;99.90;;;;;;5054045;28;20441;-35
2023/01/06 00:27:51;;;;;;;3.43;1.57;;;10.30;99.90;;;;;;5055091;28;20205;-36
2023/01/06 00:30:17;;;;;;;1.87;1.50;;;10.30;99.90;;;;;;5055897;28;20260;-41
2023/01/06 00:32:43;;;;;;;2.40;1.70;;;10.30;99.90;;;;;;5056546;28;20265;-35
2023/01/06 00:35:08;;;;;;;2.90;1.60;;;10.30;99.90;;;;;;5056480;28;20169;-35
2023/01/06 00:37:34;;;;;;;2.73;2.27;;;10.20;99.90;;;;;;5057043;28;20450;-35
2023/01/06 00:40:00;;;;;;;1.60;1.40;;;10.20;99.90;;;;;;5056627;28;20432;-36
2023/01/06 00:42:25;;;;;;;2.40;1.60;;;10.20;99.90;;;;;;5057739;28;20170;-36
2023/01/06 00:44:51;;;;;;;2.20;1.57;;;10.20;99.90;;;;;;5056980;28;20233;-35
2023/01/06 00:47:18;;;;;;;3.53;1.40;;;10.20;99.90;;;;;;5056785;28;20221;-36
2023/01/06 00:49:43;;;;;;;2.17;1.83;;;10.20;99.90;;;;;;5057377;28;20565;-36
2023/01/06 00:52:10;;;;;;;2.50;1.87;;;10.10;99.90;;;;;;5056051;28;20428;-36
2023/01/06 00:54:36;;;;;;;2.27;1.93;;;10.10;99.90;;;;;;5056226;28;20178;-35
2023/01/06 00:57:05;;;;;;;2.37;2.17;;;10.10;99.90;;;;;;5057059;28;20427;-36
2023/01/06 00:59:31;;;;;;;2.07;1.80;;;10.10;99.90;;;;;;5056428;28;20424;-37
2023/01/06 01:01:57;;;;;;;2.27;1.87;;;10.00;99.90;;;;;;5057042;28;20514;-36
2023/01/06 01:04:24;;;;;;;1.90;1.60;;;10.00;99.90;;;;;;5056776;28;20177;-37
2023/01/06 01:06:50;;;;;;;2.20;1.87;;;10.00;99.90;;;;;;5057964;28;20424;-36
2023/01/06 01:09:20;;;;;;;3.37;2.43;;;10.00;99.90;;;;;;5057255;28;20518;-36
2023/01/06 01:14:32;;;;;;;2.40;2.00;;;9.90;99.90;;;;;;5057377;28;20507;-35
2023/01/06 01:16:58;;;;;;;2.83;2.10;;;9.90;99.90;;;;;;5055475;28;20424;-36
2023/01/06 01:19:26;;;;;;;4.53;2.57;;;9.90;99.90;;;;;;5060109;28;20423;-36
2023/01/06 01:21:51;;;;;;;2.20;2.00;;;9.90;99.90;;;;;;5061065;28;20481;-35
2023/01/06 01:24:18;;;;;;;2.50;2.30;;;9.90;99.90;;;;;;5059685;28;20424;-37
2023/01/06 01:26:44;;;;;;;2.07;1.87;;;9.90;99.90;;;;;;5061118;28;20532;-37
2023/01/06 01:29:11;;;;;;;2.40;2.20;;;9.90;99.90;;;;;;5061146;28;20487;-36
2023/01/06 01:31:37;;;;;;;2.47;2.27;;;9.90;99.90;;;;;;5060717;28;20178;-36
2023/01/06 01:34:02;;;;;;;3.27;1.73;;;9.90;99.90;;;;;;5060115;28;20412;-37
2023/01/06 01:36:28;;;;;;;2.40;2.20;;;9.90;99.90;;;;;;5061036;28;20822;-36
2023/01/06 01:38:55;;;;;;;2.20;2.00;;;9.90;99.90;;;;;;5061332;28;20189;-37
2023/01/06 01:41:22;;;;;;;2.80;1.97;;;9.90;99.90;;;;;;5060370;28;20177;-37
2023/01/06 01:44:22;;;;;;;2.47;2.27;;;9.90;99.90;;;;;;5060789;28;20455;-36
2023/01/06 01:46:48;;;;;;;4.10;2.03;;;9.90;99.90;;;;;;5060966;28;20439;-36
2023/01/06 01:49:24;;;;;;;3.03;2.73;;;9.90;99.90;;;;;;5059887;28;20636;-38
2023/01/06 01:51:52;;;;;;;2.63;2.40;;;9.90;99.90;;;;;;5059472;28;20181;-36
2023/01/06 01:54:25;;;;;;;2.43;2.23;;;9.90;99.90;;;;;;5059941;28;20408;-36
2023/01/06 01:56:57;;;;;;;3.60;2.33;;;9.90;99.90;;;;;;5060746;28;20427;-36
2023/01/06 01:59:26;;;;;;;2.30;2.10;;;9.90;99.90;;;;;;5060762;28;20930;-36
2023/01/06 02:01:52;;;;;;;3.13;2.00;;;10.00;99.90;;;;;;5059997;28;20455;-37
2023/01/06 02:04:18;;;;;;;2.50;2.30;;;9.90;99.90;;;;;;5059603;28;20427;-36
2023/01/06 02:06:47;;;;;;;2.40;1.97;;;9.90;99.90;;;;;;5059472;28;20428;-37
2023/01/06 02:09:33;;;;;;;3.00;2.03;;;10.00;99.90;;;;;;5058041;28;20491;-36
2023/01/06 02:11:59;;;;;;;3.00;2.13;;;10.00;99.90;;;;;;5058621;28;20443;-37
2023/01/06 02:14:26;;;;;;;2.20;2.00;;;10.00;99.90;;;;;;5059135;28;20408;-37
2023/01/06 02:17:14;;;;;;;2.27;1.97;;;10.00;99.90;;;;;;5059729;28;20204;-37
2023/01/06 02:19:58;;;;;;;2.57;2.37;;;10.00;99.90;;;;;;5060273;28;20401;-36
2023/01/06 02:22:45;;;;;;;2.37;2.17;;;10.00;99.90;;;;;;5059634;28;20458;-37
2023/01/06 02:25:48;;;;;;;2.57;2.07;;;10.00;99.90;;;;;;5058686;28;20396;-37
2023/01/06 02:28:31;;;;;;;2.63;1.87;;;10.00;99.90;;;;;;5058901;28;20558;-37
2023/01/06 02:31:16;;;;;;;2.80;1.97;;;10.00;99.90;;;;;;5058209;28;20497;-36
2023/01/06 02:33:59;;;;;;;2.20;1.90;;;10.00;99.90;;;;;;5059043;28;20502;-37
2023/01/06 02:36:48;;;;;;;2.07;1.57;;;10.00;99.90;;;;;;5056864;28;20424;-36
2023/01/06 02:39:46;;;;;;;2.33;1.70;;;10.00;99.90;;;;;;5057404;28;20720;-37
2023/01/06 02:42:50;;;;;;;2.80;2.00;;;10.00;99.90;;;;;;5038686;28;20480;-37
2023/01/06 02:45:29;;;;;;;2.17;1.83;;;10.00;99.90;;;;;;5028741;28;20472;-36
2023/01/06 02:48:11;;;;;;;2.57;2.10;;;10.00;99.90;;;;;;5037208;28;20479;-37
2023/01/06 02:50:50;;;;;;;2.23;1.90;;;10.10;99.90;;;;;;5036748;28;20697;-35
2023/01/06 02:54:06;;;;;;;1.80;1.60;;;10.00;99.90;;;;;;5038020;28;20713;-37
2023/01/06 02:56:35;;;;;;;2.03;1.80;;;10.00;99.90;;;;;;5038381;28;20420;-37
2023/01/06 02:59:05;;;;;;;2.27;2.00;;;10.00;99.90;;;;;;5038780;28;20405;-36
2023/01/06 03:01:32;;;;;;;1.80;1.50;;;10.10;99.90;;;;;;5037389;28;20431;-36
2023/01/06 03:04:01;;;;;;;1.60;1.37;;;10.10;99.90;;;;;;5037384;28;20440;-38
2023/01/06 03:06:29;;;;;;;2.43;1.80;;;10.10;99.90;;;;;;5020802;28;20872;-39
2023/01/06 03:08:55;;;;;;;2.60;1.83;;;10.00;99.90;;;;;;5038751;28;20465;-36
2023/01/06 03:11:23;;;;;;;2.20;1.93;;;10.00;99.90;;;;;;5037091;28;20491;-37
2023/01/06 03:14:03;;;;;;;2.50;2.23;;;10.00;99.90;;;;;;5037442;28;20413;-36
2023/01/06 03:16:29;;;;;;;2.03;1.83;;;10.00;99.90;;;;;;5038297;28;20421;-36
2023/01/06 03:18:55;;;;;;;2.70;1.97;;;10.00;99.90;;;;;;5038833;28;20499;-36
2023/01/06 03:21:23;;;;;;;2.20;2.00;;;10.00;99.90;;;;;;5038274;28;20435;-36
2023/01/06 03:23:48;;;;;;;1.77;1.43;;;9.90;99.90;;;;;;5036025;28;20421;-37
2023/01/06 03:26:14;;;;;;;2.23;1.70;;;9.90;99.90;;;;;;5037546;28;20432;-37
2023/01/06 03:28:40;;;;;;;2.10;1.90;;;9.80;99.90;;;;;;5036466;28;20256;-36
2023/01/06 03:31:33;;;;;;;2.00;1.70;;;9.80;99.90;;;;;;5038380;28;20166;-36
2023/01/06 03:34:10;;;;;;;2.73;1.60;;;9.80;99.90;;;;;;5037002;28;20555;-36
2023/01/06 03:37:12;;;;;;;3.33;2.37;;;9.70;99.90;;;;;;5036390;28;20417;-36
2023/01/06 03:40:15;;;;;;;2.20;2.00;;;9.70;99.90;;;;;;5038156;28;20532;-37
2023/01/06 03:45:59;;;;;;;3.10;1.97;;;9.60;99.90;;;;;;5057125;28;20518;-37
2023/01/06 03:48:29;;;;;;;2.23;1.80;;;9.60;99.90;;;;;;5057625;28;20476;-37
2023/01/06 03:51:27;;;;;;;3.90;1.70;;;9.50;99.90;;;;;;5057996;28;20507;-37
2023/01/06 03:54:07;;;;;;;2.77;2.20;;;9.50;99.90;;;;;;5059312;28;20513;-37
2023/01/06 03:56:40;;;;;;;2.27;2.07;;;9.50;99.90;;;;;;5058596;28;20412;-37
2023/01/06 03:59:11;;;;;;;2.33;2.13;;;9.40;99.90;;;;;;5059545;28;20780;-38
2023/01/06 04:01:38;;;;;;;2.70;2.37;;;9.40;1.00;;;;;;5057918;28;20495;-38
2023/01/06 04:04:04;;;;;;;2.40;2.07;;;9.40;1.00;;;;;;5058108;28;20866;-37
2023/01/06 04:06:29;;;;;;;2.77;2.20;;;9.40;1.00;;;;;;5057370;28;20433;-37
2023/01/06 04:08:55;;;;;;;3.03;2.50;;;9.40;1.00;;;;;;5058046;28;20209;-37
2023/01/06 04:14:05;;;;;;;2.97;2.53;;;9.40;1.00;;;;;;5057425;28;20204;-36
2023/01/06 04:16:31;;;;;;;3.00;2.70;;;9.40;1.00;;;;;;5057623;28;20439;-37
2023/01/06 04:18:56;;;;;;;3.83;2.60;;;9.40;1.00;;;;;;5056854;28;20259;-36
2023/01/06 04:21:22;;;;;;;3.07;2.50;;;9.40;1.00;;;;;;5056381;28;20254;-36
2023/01/06 04:23:47;;;;;;;3.40;3.10;;;9.40;1.00;;;;;;5056654;28;20249;-36
2023/01/06 04:26:13;;;;;;;2.70;2.40;;;9.40;1.00;;;;;;5056191;28;20186;-37
2023/01/06 04:28:39;;;;;;;2.77;2.53;;;9.40;1.00;;;;;;5056627;28;20216;-37
2023/01/06 04:31:04;;;;;;;3.30;2.80;;;9.40;1.00;;;;;;5055752;28;20442;-37
2023/01/06 04:33:30;;;;;;;2.83;2.57;;;9.40;1.00;;;;;;5056287;28;20309;-37
2023/01/06 04:35:56;;;;;;;2.90;2.60;;;9.30;1.00;;;;;;5055911;28;20166;-37
2023/01/06 04:38:21;;;;;;;2.40;2.13;;;9.30;1.00;;;;;;5056147;28;20178;-36
2023/01/06 04:40:47;;;;;;;2.70;2.50;;;9.30;1.00;;;;;;5057345;28;20454;-39
2023/01/06 04:43:15;;;;;;;3.50;2.00;;;9.30;1.00;;;;;;5056766;28;20208;-37
2023/01/06 04:45:41;;;;;;;2.20;2.00;;;9.30;1.00;;;;;;5057322;28;20225;-37
2023/01/06 04:48:08;;;;;;;3.10;2.80;;;9.30;1.00;;;;;;5056941;28;20578;-36
2023/01/06 04:50:33;;;;;;;4.67;2.40;;;9.20;1.00;;;;;;5056724;28;20712;-37
2023/01/06 04:52:59;;;;;;;3.00;2.60;;;9.20;1.00;;;;;;5058962;28;20419;-36
2023/01/06 04:55:24;;;;;;;5.60;3.27;;;9.20;1.00;;;;;;5059976;28;20177;-37
2023/01/06 04:57:52;;;;;;;2.83;2.63;;;9.20;1.00;;;;;;5059441;28;20198;-37
2023/01/06 05:00:18;;;;;;;3.20;2.57;;;9.20;1.00;;;;;;5059801;28;20182;-37
2023/01/06 05:06:10;;;;;;;4.50;2.70;;;9.20;1.00;;;;;;5060741;28;20688;-37
2023/01/06 05:08:40;;;;;;;3.53;2.63;;;9.20;1.00;;;;;;5060084;28;20811;-37
2023/01/06 05:11:08;;;;;;;3.60;2.77;;;9.30;1.00;;;;;;5060152;28;20428;-37
2023/01/06 05:13:34;;;;;;;2.73;2.47;;;9.30;1.00;;;;;;5059642;28;20495;-37
2023/01/06 05:16:00;;;;;;;2.67;2.47;;;9.30;1.00;;;;;;5059544;28;20460;-37
2023/01/06 05:18:26;;;;;;;3.67;2.70;;;9.30;1.00;;;;;;5060120;28;20443;-37
2023/01/06 05:20:53;;;;;;;4.23;2.53;;;9.30;1.00;;;;;;5060782;28;20189;-37
2023/01/06 05:23:19;;;;;;;2.70;2.50;;;9.30;1.00;;;;;;5060952;28;20173;-37
2023/01/06 05:25:45;;;;;;;2.33;2.13;;;9.30;1.00;;;;;;5060859;28;20460;-36
2023/01/06 05:28:11;;;;;;;2.70;2.30;;;9.30;1.00;;;;;;5059874;28;20914;-37
2023/01/06 05:30:37;;;;;;;2.60;2.37;;;9.30;1.00;;;;;;5061241;28;20181;-37
2023/01/06 05:33:03;;;;;;;2.43;2.13;;;9.40;1.00;;;;;;5060757;28;20835;-37
2023/01/06 05:35:29;;;;;;;3.03;2.70;;;9.40;1.00;;;;;;5060291;28;20185;-37
2023/01/06 05:37:54;;;;;;;2.30;2.10;;;9.40;1.00;;;;;;5061009;28;20554;-37
2023/01/06 05:40:20;;;;;;;3.33;2.27;;;9.40;1.00;;;;;;5060438;28;20428;-35
2023/01/06 05:42:46;;;;;;;2.50;2.30;;;9.40;1.00;;;;;;5058591;28;20173;-37
2023/01/06 05:45:11;;;;;;;2.67;2.13;;;9.40;1.00;;;;;;5060484;28;20328;-37
2023/01/06 05:47:37;;;;;;;3.00;2.43;;;9.40;1.00;;;;;;5060636;28;20209;-36
2023/01/06 05:50:03;;;;;;;3.20;2.10;;;9.40;1.00;;;;;;5060744;28;20242;-36
2023/01/06 05:52:29;;;;;;;2.40;2.10;;;9.40;1.00;;;;;;5060424;28;20166;-36
2023/01/06 05:54:54;;;;;;;2.60;1.93;;;9.40;1.00;;;;;;5060335;28;20843;-37
2023/01/06 05:57:20;;;;;;;2.50;2.30;;;9.40;1.00;;;;;;5059021;28;20166;-37
2023/01/06 05:59:45;;;;;;;3.03;2.20;;;9.40;1.00;;;;;;5058730;28;20472;-37
2023/01/06 06:02:11;;;;;;;2.70;2.30;;;9.40;1.00;;;;;;5057137;28;20273;-37
2023/01/06 06:04:37;;;;;;;2.30;2.10;;;9.40;1.00;;;;;;5056614;28;20169;-37
2023/01/06 06:07:02;;;;;;;2.60;2.40;;;9.40;1.00;;;;;;5057340;28;20182;-37
2023/01/06 06:09:28;;;;;;;2.70;2.00;;;9.40;1.00;;;;;;5056816;28;20206;-37
2023/01/06 06:11:54;;;;;;;3.70;2.20;;;9.40;1.00;;;;;;5056334;28;20228;-37
2023/01/06 06:14:20;;;;;;;2.50;2.30;;;9.40;1.00;;;;;;5057968;28;20170;-36
2023/01/06 06:16:46;;;;;;;2.60;2.40;;;9.40;1.00;;;;;;5058942;28;20486;-39
2023/01/06 06:19:12;;;;;;;2.00;1.87;;;9.40;1.00;;;;;;5059310;28;20448;-37
2023/01/06 06:21:39;;;;;;;2.17;1.97;;;9.30;1.00;;;;;;5059408;28;20442;-36
2023/01/06 06:24:05;;;;;;;2.57;1.90;;;9.30;1.00;;;;;;5059649;28;20412;-35
2023/01/06 06:26:31;;;;;;;2.10;1.90;;;9.30;1.00;;;;;;5060049;28;20494;-36
2023/01/06 06:28:57;;;;;;;2.13;1.93;;;9.20;1.00;;;;;;5059554;28;20456;-37
2023/01/06 06:31:27;;;;;;;2.33;2.00;;;9.20;1.00;;;;;;5059107;28;20432;-35
2023/01/06 06:33:54;;;;;;;2.97;2.10;;;9.20;1.00;;;;;;5059837;28;20331;-37
2023/01/06 06:36:20;;;;;;;3.00;1.73;;;9.20;1.00;;;;;;5059390;28;20428;-36
2023/01/06 06:38:48;;;;;;;2.90;2.60;;;9.20;1.00;;;;;;5057543;28;20409;-37
2023/01/06 06:41:14;;;;;;;2.53;2.33;;;9.20;1.00;;;;;;5057115;28;20572;-36
2023/01/06 06:43:40;;;;;;;2.43;1.80;;;9.20;1.00;;;;;;5056834;28;20863;-37
2023/01/06 06:46:06;;;;;;;1.60;1.50;;;9.10;1.00;;;;;;5056161;28;20525;-36
2023/01/06 06:48:32;;;;;;;2.40;2.17;;;9.10;1.00;;;;;;5057611;28;20459;-36
2023/01/06 06:51:02;;;;;;;1.60;1.50;;;9.10;1.00;;;;;;5057580;28;20492;-37
2023/01/06 06:53:27;;;;;;;1.80;1.70;;;9.20;1.00;;;;;;5057841;28;20412;-36
2023/01/06 06:55:54;;;;;;;2.43;1.90;;;9.20;1.00;;;;;;5058081;28;20447;-36
2023/01/06 06:58:20;;;;;;;2.00;1.70;;;9.20;1.00;;;;;;5058772;28;20173;-36
2023/01/06 07:00:45;;;;;;;4.93;2.57;;;9.20;1.00;;;;;;5058037;28;20424;-35
2023/01/06 07:03:11;;;;;;;1.93;1.60;;;9.20;1.00;;;;;;5058201;28;20459;-37
2023/01/06 07:05:37;;;;;;;2.23;1.60;;;9.30;1.00;;;;;;5057611;28;20196;-35
2023/01/06 07:08:03;;;;;;;1.70;1.53;;;9.30;1.00;;;;;;5056848;28;20664;-37
2023/01/06 07:10:28;;;;;;;1.80;1.47;;;9.30;1.00;;;;;;5056481;28;20588;-36
2023/01/06 07:12:54;;;;;;;1.73;1.50;;;9.30;1.00;;;;;;5056916;28;20412;-37
2023/01/06 07:15:20;;;;;;;2.17;1.53;;;9.30;1.00;;;;;;5057184;28;20185;-37
2023/01/06 07:17:45;;;;;;;2.23;1.80;;;9.40;1.00;;;;;;5057338;28;20272;-36
2023/01/06 07:20:11;;;;;;;2.00;1.57;;;9.40;1.00;;;;;;5057762;28;20548;-37
2023/01/06 07:22:40;;;;;;;3.23;1.90;;;9.40;1.00;;;;;;5057753;28;20265;-37
2023/01/06 07:25:07;;;;;;;1.73;1.60;;;9.40;1.00;;;;;;5058586;28;20639;-37
2023/01/06 07:27:33;;;;;;;2.00;1.47;;;9.50;1.00;;;;;;5058488;28;20419;-37
2023/01/06 07:29:59;;;;;;;1.93;1.67;;;9.50;1.00;;;;;;5058037;28;20595;-37
2023/01/06 07:32:25;;;;;;;1.77;1.67;;;9.50;1.00;;;;;;5056709;28;20423;-37
2023/01/06 07:34:50;;;;;;;1.50;1.30;;;9.60;1.00;;;;;;5057607;28;20174;-36
2023/01/06 07:37:16;;;;;;;3.30;1.30;;;9.60;1.00;;;;;;5058799;28;20189;-35
2023/01/06 07:39:42;;;;;;;3.03;1.80;;;9.60;1.00;;;;;;5057515;28;20177;-36
2023/01/06 07:42:08;;;;;;;1.80;1.40;;;9.60;1.00;;;;;;5057457;28;20174;-36
2023/01/06 07:44:33;;;;;;;2.30;1.50;;;9.70;1.00;;;;;;5057351;28;20217;-37
2023/01/06 07:46:59;;;;;;;1.67;1.40;;;9.70;1.00;;;;;;5056996;28;20450;-35
2023/01/06 07:49:25;;;;;;;1.40;1.30;;;9.70;1.00;;;;;;5056702;28;20206;-36
2023/01/06 07:51:50;;;;;;;1.10;0.90;;;9.80;1.00;;;;;;5055101;28;20182;-36
2023/01/06 07:54:16;;;;;;;2.07;1.50;;;9.80;1.00;;;;;;5055916;28;20271;-36
2023/01/06 07:56:42;;;;;;;1.03;0.80;;;9.80;1.00;;;;;;5055045;28;20262;-35
2023/01/06 07:59:08;;;;;;;2.37;1.57;;;9.90;1.00;;;;;;5056646;28;20208;-37
2023/01/06 08:01:34;;;;;;;2.30;1.80;;;9.90;1.00;;;;;;5057165;28;20953;-35
2023/01/06 08:04:00;;;;;;;1.70;1.53;;;10.00;1.00;;;;;;5057846;28;20491;-36
2023/01/06 08:06:27;;;;;;;1.80;1.50;;;10.00;1.00;;;;;;5057476;28;20189;-37
2023/01/06 08:08:53;;;;;;;1.60;1.23;;;10.10;1.00;;;;;;5056653;28;20273;-36
2023/01/06 08:11:19;;;;;;;1.57;1.47;;;10.10;1.00;;;;;;5055301;28;21010;-36
2023/01/06 08:13:45;;;;;;;2.10;1.77;;;10.10;1.00;;;;;;5057555;28;20174;-36
2023/01/06 08:16:11;;;;;;;2.07;1.57;;;10.20;1.00;;;;;;5056312;28;20493;-36
2023/01/06 08:18:37;;;;;;;1.77;1.20;;;10.20;1.00;;;;;;5057055;28;20177;-36
2023/01/06 08:21:07;;;;;;;2.00;1.07;;;10.20;1.00;;;;;;5057440;28;20466;-36
2023/01/06 08:23:34;;;;;;;1.20;1.00;;;10.30;1.00;;;;;;5056861;28;20696;-35
2023/01/06 08:26:04;;;;;;;3.77;1.23;;;10.30;1.00;;;;;;5056997;28;20470;-36
2023/01/06 08:28:30;;;;;;;1.27;0.90;;;10.40;1.00;;;;;;5055676;28;20720;-36
2023/01/06 08:30:56;;;;;;;1.30;0.97;;;10.40;1.00;;;;;;5054517;28;20429;-36
2023/01/06 08:33:24;;;;;;;1.00;0.80;;;10.40;1.00;;;;;;5056571;28;20602;-37
2023/01/06 08:36:00;;;;;;;1.30;0.90;;;10.50;1.00;;;;;;5056095;28;20192;-36
2023/01/06 08:38:26;;;;;;;1.37;0.80;;;10.50;1.00;;;;;;5055589;28;20482;-36
2023/01/06 08:40:52;;;;;;;1.37;0.80;;;10.60;1.00;;;;;;5055553;28;20424;-38
2023/01/06 08:43:18;;;;;;;2.40;0.90;;;10.70;1.00;;;;;;5055733;28;20695;-37
2023/01/06 08:45:44;;;;;;;2.17;1.17;;;10.70;1.00;;;;;;5054971;28;20480;-36
2023/01/06 08:48:09;;;;;;;1.23;0.90;;;10.80;1.00;;;;;;5057316;28;20479;-36
2023/01/06 08:50:38;;;;;;;1.87;1.13;;;10.80;1.00;;;;;;5056060;28;20592;-36
2023/01/06 08:53:03;;;;;;;1.47;1.17;;;10.90;99.90;;;;;;5053487;28;20584;-35
2023/01/06 08:55:29;;;;;;;1.67;1.30;;;10.90;99.90;;;;;;5053791;28;20425;-36
2023/01/06 08:57:55;;;;;;;1.87;1.60;;;11.00;99.90;;;;;;5056715;28;20546;-37
2023/01/06 09:00:20;;;;;;;2.13;1.93;;;11.10;99.90;;;;;;5055294;28;20569;-35
2023/01/06 09:02:46;;;;;;;2.00;1.90;;;11.20;99.90;;;;;;5056930;28;20615;-36
2023/01/06 09:05:12;;;;;;;1.90;1.80;;;11.30;99.90;;;;;;5052889;28;20189;-35
2023/01/06 09:07:37;;;;;;;1.77;1.47;;;11.40;99.90;;;;;;5054140;28;20565;-33
2023/01/06 09:10:03;;;;;;;1.90;1.57;;;11.50;99.90;;;;;;5053021;28;20224;-34
2023/01/06 09:12:29;;;;;;;2.10;1.80;;;11.50;62.70;;;;;;5053516;28;20247;-35
2023/01/06 09:14:54;;;;;;;2.63;1.57;;;11.50;1.00;;;;;;5054780;28;20436;-34
2023/01/06 09:17:20;;;;;;;2.67;2.47;;;11.50;1.00;;;;;;5054539;28;20454;-38
2023/01/06 09:19:46;;;;;;;1.60;1.50;;;11.50;1.00;;;;;;5055671;28;20181;-47
2023/01/06 09:22:11;;;;;;;2.07;1.60;;;11.50;17.80;;;;;;5056582;28;20213;-41
2023/01/06 09:24:37;;;;;;;1.70;1.40;;;11.50;10.10;;;;;;5056370;28;20257;-35
2023/01/06 09:27:03;;;;;;;2.33;1.80;;;11.50;42.50;;;;;;5053927;28;20192;-35
2023/01/06 09:29:28;;;;;;;1.63;1.27;;;11.50;17.10;;;;;;5054561;28;20645;-35
2023/01/06 09:31:54;;;;;;;1.60;1.37;;;11.60;1.00;;;;;;5054568;28;20197;-37
2023/01/06 09:34:20;;;;;;;1.60;1.30;;;11.70;1.00;;;;;;5054422;28;20169;-36
2023/01/06 09:36:45;;;;;;;1.50;1.10;;;11.90;1.00;;;;;;5053237;28;20174;-37
2023/01/06 09:39:11;;;;;;;1.97;1.50;;;12.10;1.00;;;;;;5053651;28;20181;-37
2023/01/06 09:41:58;;;;;;;1.70;1.20;;;12.50;99.90;;;;;;5058867;28;20347;-35
2023/01/06 09:44:35;;;;;;;1.40;1.10;;;12.70;1.00;;;;;;5057512;28;20435;-35
2023/01/06 09:47:02;;;;;;;1.40;1.00;;;12.80;99.90;;;;;;5057075;28;20550;-35
2023/01/06 09:49:42;;;;;;;1.17;0.83;;;12.90;1.00;;;;;;5057495;28;20899;-36
2023/01/06 09:52:30;;;;;;;1.20;0.70;;;13.00;99.90;;;;;;5059400;28;20455;-35
2023/01/06 09:55:25;;;;;;;1.17;0.60;;;13.20;1.00;;;;;;5058570;28;20489;-35
2023/01/06 09:57:54;;;;;;;1.47;0.50;;;13.50;1.00;;;;;;5056266;28;20416;-37
2023/01/06 10:00:47;;;;;;;1.83;0.60;;;14.20;26.30;;;;;;5057200;28;20758;-35
2023/01/06 10:03:13;;;;;;;2.37;0.60;;;15.40;99.90;;;;;;5055589;28;20519;-36
2023/01/06 10:06:07;;;;;;;1.20;0.77;;;16.60;53.20;;;;;;5056643;28;20597;-37
2023/01/06 10:08:54;;;;;;;1.97;0.57;;;18.30;99.90;;;;;;5057196;28;20460;-35
2023/01/06 10:11:54;;;;;;;0.90;0.50;;;20.50;99.90;;;;;;5056590;28;20424;-36
2023/01/06 10:14:50;;;;;;;0.90;0.40;;;21.90;4.20;;;;;;5048709;28;20420;-36
2023/01/06 10:17:28;;;;;;;1.37;0.60;;;22.10;1.00;;;;;;5057057;28;20854;-36
2023/01/06 10:20:05;;;;;;;0.90;0.40;;;21.60;1.00;;;;;;5056436;28;20444;-37
2023/01/06 10:22:33;;;;;;;0.90;0.47;;;21.00;1.00;;;;;;5056762;28;20408;-35
2023/01/06 10:25:22;;;;;;;1.10;0.60;;;20.40;1.00;;;;;;5058684;28;20491;-38
2023/01/06 10:27:55;;;;;;;1.53;0.70;;;19.90;1.00;;;;;;5057540;28;20471;-36
2023/01/06 10:30:27;;;;;;;2.13;0.40;;;19.40;1.00;;;;;;5058845;28;20859;-36
2023/01/06 10:32:52;;;;;;;1.10;0.60;;;19.00;1.00;;;;;;5059657;28;20412;-36
2023/01/06 10:35:20;;;;;;;1.20;0.70;;;18.70;1.00;;;;;;5058872;28;20439;-36
2023/01/06 10:37:48;;;;;;;1.27;0.70;;;18.40;1.00;;;;;;5056886;28;20192;-35
2023/01/06 10:40:24;;;;;;;1.27;0.83;;;18.10;1.00;;;;;;5056014;28;20515;-36
2023/01/06 10:43:02;;;;;;;1.40;1.20;;;17.80;1.00;;;;;;5055413;28;20416;-37
2023/01/06 10:45:37;;;;;;;1.47;0.83;;;17.60;1.00;;;;;;5057688;28;20487;-35
2023/01/06 10:48:05;;;;;;;1.00;0.60;;;17.40;1.00;;;;;;5058296;28;20866;-36
2023/01/06 10:50:33;;;;;;;1.30;0.70;;;17.30;1.00;;;;;;5056342;28;20447;-36
2023/01/06 10:52:58;;;;;;;2.13;1.50;;;17.20;1.00;;;;;;5058307;28;20752;-36
2023/01/06 10:55:32;;;;;;;1.73;1.40;;;17.20;1.00;;;;;;5058252;28;20424;-36
2023/01/06 10:58:37;;;;;;;1.60;1.20;;;17.20;1.00;;;;;;5056252;28;20174;-36
2023/01/06 11:01:16;;;;;;;1.40;1.00;;;17.10;1.00;;;;;;5057060;28;20569;-37
2023/01/06 11:03:43;;;;;;;1.10;0.70;;;16.90;1.00;;;;;;5053618;28;20440;-37
2023/01/06 11:06:14;;;;;;;1.00;0.60;;;16.80;1.00;;;;;;5057396;28;20540;-37
2023/01/06 11:08:40;;;;;;;1.00;0.70;;;16.50;1.00;;;;;;5057868;28;20455;-37
2023/01/06 11:11:13;;;;;;;1.40;0.50;;;16.30;1.00;;;;;;5057632;28;20431;-37
2023/01/06 11:13:39;;;;;;;1.00;0.50;;;16.30;1.00;;;;;;5057960;28;20251;-36
2023/01/06 11:16:26;;;;;;;1.50;0.70;;;16.20;1.00;;;;;;5057762;28;20432;-36
2023/01/06 11:19:22;;;;;;;0.90;0.60;;;16.20;1.00;;;;;;5056748;28;20428;-36
2023/01/06 11:21:48;;;;;;;0.90;0.50;;;16.00;1.00;;;;;;5035585;28;20440;-36
2023/01/06 11:24:23;;;;;;;1.07;0.63;;;15.90;1.00;;;;;;5057741;28;20466;-37
2023/01/06 11:27:15;;;;;;;1.50;1.00;;;15.70;1.00;;;;;;5056484;28;20794;-36
2023/01/06 11:29:40;;;;;;;0.83;0.47;;;15.40;1.00;;;;;;5048827;28;20472;-36
2023/01/06 11:32:15;;;;;;;1.00;0.50;;;15.30;1.00;;;;;;5057566;28;20536;-35
2023/01/06 11:34:51;;;;;;;1.97;0.80;;;15.00;1.00;;;;;;5056208;28;20458;-37
2023/01/06 11:37:38;;;;;;;1.77;0.70;;;14.90;1.00;;;;;;5055299;28;20780;-37
2023/01/06 11:40:33;;;;;;;1.00;0.60;;;14.70;1.00;;;;;;5055217;28;20481;-36
2023/01/06 11:43:02;;;;;;;1.50;0.90;;;14.60;16.70;;;;;;5054883;28;20518;-37
2023/01/06 11:45:56;;;;;;;1.37;0.83;;;14.50;37.00;;;;;;5055378;28;20468;-36
2023/01/06 11:48:28;;;;;;;1.30;0.70;;;14.40;58.30;;;;;;5053896;28;20467;-36
2023/01/06 11:50:59;;;;;;;1.60;1.00;;;14.30;96.80;;;;;;5054198;28;20424;-37
2023/01/06 11:53:25;;;;;;;2.50;1.07;;;14.30;99.90;;;;;;5054490;28;20413;-36
2023/01/06 11:56:17;;;;;;;1.30;0.87;;;14.20;99.90;;;;;;5052800;28;20432;-37
2023/01/06 11:58:51;;;;;;;1.63;0.70;;;14.30;99.90;;;;;;5046640;28;20739;-37
2023/01/06 12:01:41;;;;;;;2.07;0.80;;;14.30;99.90;;;;;;5054551;28;20924;-36
2023/01/06 12:04:15;;;;;;;1.70;0.67;;;14.30;99.90;;;;;;5055661;28;20416;-36
2023/01/06 12:06:42;;;;;;;1.00;0.60;;;14.30;99.90;;;;;;5055180;28;20440;-36
2023/01/06 12:09:31;;;;;;;1.60;0.70;;;14.30;99.90;;;;;;5038886;28;20559;-36
2023/01/06 12:12:01;;;;;;;1.00;0.50;;;14.30;99.90;;;;;;5054297;28;20439;-37
2023/01/06 12:14:29;;;;;;;1.27;0.80;;;14.30;99.90;;;;;;5053561;28;20739;-38
2023/01/06 12:17:12;;;;;;;2.30;0.97;;;14.30;99.90;;;;;;5054382;28;20424;-36
2023/01/06 12:19:55;;;;;;;1.20;0.80;;;14.30;99.90;;;;;;5051636;28;20440;-37
2023/01/06 12:22:36;;;;;;;0.90;0.70;;;14.30;99.90;;;;;;5052086;28;20438;-37
2023/01/06 12:25:03;;;;;;;1.50;1.23;;;14.40;99.90;;;;;;5052040;28;20458;-36
2023/01/06 12:27:47;;;;;;;1.93;0.90;;;14.40;99.90;;;;;;5052604;28;20657;-36
2023/01/06 12:30:35;;;;;;;2.07;0.90;;;14.40;99.90;;;;;;5052886;28;20534;-36
2023/01/06 12:33:24;;;;;;;1.03;0.77;;;14.40;99.90;;;;;;5024671;28;20416;-36
2023/01/06 12:35:53;;;;;;;1.10;0.70;;;14.40;99.90;;;;;;5045404;28;20879;-37
2023/01/06 12:38:38;;;;;;;1.30;0.90;;;14.30;99.90;;;;;;5051249;28;20845;-37
2023/01/06 12:41:10;;;;;;;1.57;0.90;;;14.30;99.90;;;;;;5053791;28;20419;-36
2023/01/06 12:43:38;;;;;;;1.60;1.00;;;14.20;99.90;;;;;;5053849;28;20589;-37
2023/01/06 12:46:25;;;;;;;1.30;1.00;;;14.10;99.90;;;;;;5052526;28;20456;-37
2023/01/06 12:49:04;;;;;;;1.40;0.83;;;14.00;99.90;;;;;;5050950;28;20550;-36
2023/01/06 12:51:33;;;;;;;1.30;0.80;;;13.90;99.90;;;;;;5050730;28;20835;-36
2023/01/06 12:54:03;;;;;;;1.50;0.97;;;13.80;1.00;;;;;;5051702;28;20530;-37
2023/01/06 12:56:50;;;;;;;1.50;1.00;;;13.70;1.00;;;;;;5050028;28;20468;-37
2023/01/06 12:59:39;;;;;;;1.90;1.00;;;13.70;1.00;;;;;;5052607;28;20422;-36
2023/01/06 13:02:18;;;;;;;1.70;0.90;;;13.60;1.00;;;;;;5051401;28;20746;-37
2023/01/06 13:05:16;;;;;;;1.50;0.83;;;13.60;1.00;;;;;;5054343;28;20748;-37
2023/01/06 13:07:52;;;;;;;1.40;1.00;;;13.60;1.00;;;;;;5051372;28;20432;-36
2023/01/06 13:10:46;;;;;;;1.40;0.80;;;13.60;1.00;;;;;;5053394;28;20438;-37
2023/01/06 13:13:42;;;;;;;1.13;0.70;;;13.70;99.90;;;;;;5053232;28;20846;-37
2023/01/06 13:16:20;;;;;;;1.00;0.50;;;13.60;99.90;;;;;;5057844;28;20933;-36
2023/01/06 13:18:56;;;;;;;1.47;0.60;;;13.60;99.90;;;;;;5059131;28;20434;-36
2023/01/06 13:21:22;;;;;;;1.20;0.60;;;13.60;99.90;;;;;;5057259;28;20581;-35
2023/01/06 13:24:00;;;;;;;1.50;1.00;;;13.60;99.90;;;;;;5058808;28;20436;-37
2023/01/06 13:26:45;;;;;;;1.70;1.20;;;13.60;99.90;;;;;;5057496;28;20808;-36
2023/01/06 13:29:33;;;;;;;5.50;4.90;;;13.60;99.90;;;;;;5058015;28;20478;-37